createdAt,value
2018-09-01T00:01:25.492Z,3.60
2018-09-01T00:03:53.919Z,2.97
2018-09-01T00:06:23.460Z,3.33
2018-09-01T00:08:51.844Z,3.13
2018-09-01T00:11:20.289Z,3.30
2018-09-01T00:13:48.645Z,2.63
2018-09-01T00:16:17.056Z,2.83
2018-09-01T00:18:46.397Z,3.37
2018-09-01T00:21:16.973Z,3.00
2018-09-01T00:23:46.696Z,2.70
2018-09-01T00:26:16.050Z,3.67
2018-09-01T00:28:45.540Z,3.40
2018-09-01T00:31:15.697Z,3.23
2018-09-01T00:33:45.832Z,4.00
2018-09-01T00:36:16.034Z,2.73
2018-09-01T00:38:50.573Z,3.67
2018-09-01T00:41:20.203Z,3.23
2018-09-01T00:43:49.449Z,3.37
2018-09-01T00:46:17.781Z,3.27
2018-09-01T00:48:46.137Z,3.20
2018-09-01T00:51:16.331Z,3.20
2018-09-01T00:53:46.805Z,3.73
2018-09-01T00:56:17.013Z,3.60
2018-09-01T00:58:46.337Z,4.10
2018-09-01T01:01:16.953Z,3.80
2018-09-01T01:03:45.558Z,3.63
2018-09-01T01:06:15.096Z,4.27
2018-09-01T01:08:44.000Z,2.87
2018-09-01T01:11:14.278Z,3.30
2018-09-01T01:13:43.401Z,3.00
2018-09-01T01:16:14.286Z,3.70
2018-09-01T01:18:43.305Z,3.30
2018-09-01T01:21:19.517Z,3.13
2018-09-01T01:23:47.885Z,3.30
2018-09-01T01:26:17.097Z,3.17
2018-09-01T01:28:46.639Z,3.43
2018-09-01T01:31:15.970Z,3.00
2018-09-01T01:33:45.060Z,3.00
2018-09-01T01:36:15.315Z,3.07
2018-09-01T01:38:45.203Z,3.03
2018-09-01T01:41:15.168Z,3.20
2018-09-01T01:43:45.355Z,3.20
2018-09-01T01:46:14.591Z,3.30
2018-09-01T01:48:42.954Z,3.47
2018-09-01T01:51:11.545Z,3.47
2018-09-01T01:53:41.021Z,3.53
2018-09-01T01:56:10.364Z,3.80
2018-09-01T01:58:38.690Z,3.77
2018-09-01T02:01:07.025Z,3.03
2018-09-01T02:03:35.349Z,3.07
2018-09-01T02:06:04.716Z,4.07
2018-09-01T02:08:33.096Z,3.40
2018-09-01T02:11:01.590Z,3.37
2018-09-01T02:13:29.917Z,3.53
2018-09-01T02:15:59.137Z,3.87
2018-09-01T02:18:28.497Z,3.40
2018-09-01T02:20:57.233Z,3.57
2018-09-01T02:23:26.311Z,4.10
2018-09-01T02:25:55.344Z,3.73
2018-09-01T02:28:23.713Z,3.77
2018-09-01T02:30:55.645Z,3.60
2018-09-01T02:33:25.059Z,3.97
2018-09-01T02:35:55.049Z,4.57
2018-09-01T02:38:24.987Z,4.13
2018-09-01T02:40:55.484Z,4.00
2018-09-01T02:43:25.528Z,3.23
2018-09-01T02:45:55.467Z,4.30
2018-09-01T02:48:24.999Z,4.10
2018-09-01T02:50:54.240Z,3.93
2018-09-01T02:53:23.473Z,3.93
2018-09-01T02:55:52.168Z,4.03
2018-09-01T02:58:21.502Z,3.53
2018-09-01T03:05:11.745Z,3.70
2018-09-01T03:07:40.077Z,4.30
2018-09-01T03:10:08.401Z,4.00
2018-09-01T03:12:36.729Z,4.13
2018-09-01T03:15:05.376Z,3.93
2018-09-01T03:17:33.986Z,4.00
2018-09-01T03:20:03.364Z,3.60
2018-09-01T03:22:32.136Z,5.17
2018-09-01T03:25:00.667Z,4.27
2018-09-01T03:27:28.992Z,3.57
2018-09-01T03:29:57.308Z,4.17
2018-09-01T03:32:27.200Z,4.40
2018-09-01T03:34:56.621Z,4.50
2018-09-01T03:37:26.485Z,3.73
2018-09-01T03:39:56.873Z,4.60
2018-09-01T03:42:27.034Z,4.23
2018-09-01T03:44:57.529Z,4.57
2018-09-01T03:47:27.036Z,4.27
2018-09-01T03:49:56.557Z,4.47
2018-09-01T03:52:26.680Z,3.50
2018-09-01T03:54:56.966Z,4.03
2018-09-01T03:57:27.718Z,4.30
2018-09-01T03:59:57.145Z,4.23
2018-09-01T04:02:27.416Z,4.30
2018-09-01T04:04:57.263Z,4.30
2018-09-01T04:07:27.569Z,4.50
2018-09-01T04:09:57.007Z,4.50
2018-09-01T04:12:26.361Z,5.43
2018-09-01T04:14:55.490Z,5.27
2018-09-01T04:17:25.917Z,4.80
2018-09-01T04:19:54.292Z,4.77
2018-09-01T04:22:23.689Z,5.40
2018-09-01T04:24:52.057Z,5.37
2018-09-01T04:27:22.808Z,3.83
2018-09-01T04:29:52.367Z,4.40
2018-09-01T04:32:21.589Z,4.20
2018-09-01T04:34:50.439Z,4.30
2018-09-01T04:37:20.875Z,4.60
2018-09-01T04:39:50.564Z,6.43
2018-09-01T04:42:19.811Z,4.50
2018-09-01T04:44:48.136Z,4.93
2018-09-01T04:47:17.518Z,4.80
2018-09-01T04:49:45.853Z,4.60
2018-09-01T04:52:15.345Z,4.83
2018-09-01T04:54:43.705Z,5.10
2018-09-01T04:57:12.180Z,4.90
2018-09-01T04:59:40.525Z,5.00
2018-09-01T05:02:09.908Z,5.30
2018-09-01T05:04:39.461Z,4.80
2018-09-01T05:07:08.077Z,4.90
2018-09-01T05:09:37.452Z,5.10
2018-09-01T05:12:05.846Z,4.80
2018-09-01T05:14:35.236Z,5.00
2018-09-01T05:17:04.604Z,5.60
2018-09-01T05:19:34.013Z,5.40
2018-09-01T05:22:02.528Z,5.20
2018-09-01T05:24:30.909Z,6.00
2018-09-01T05:27:00.280Z,5.50
2018-09-01T05:29:28.672Z,5.70
2018-09-01T05:31:58.872Z,5.17
2018-09-01T05:41:28.267Z,5.17
2018-09-01T05:43:57.349Z,5.00
2018-09-01T05:46:27.640Z,4.97
2018-09-01T05:48:58.524Z,4.93
2018-09-01T05:51:27.992Z,4.70
2018-09-01T05:53:57.432Z,4.57
2018-09-01T05:56:27.323Z,4.23
2018-09-01T05:58:55.760Z,4.60
2018-09-01T06:01:24.651Z,4.57
2018-09-01T06:03:53.088Z,5.00
2018-09-01T06:06:22.880Z,6.60
2018-09-01T06:08:51.816Z,6.10
2018-09-01T06:11:20.987Z,5.50
2018-09-01T06:13:50.008Z,5.20
2018-09-01T06:16:19.226Z,5.40
2018-09-01T06:18:47.547Z,5.03
2018-09-01T06:21:16.952Z,5.50
2018-09-01T06:23:45.316Z,5.43
2018-09-01T06:26:13.629Z,5.80
2018-09-01T06:30:53.340Z,4.83
2018-09-01T06:33:22.671Z,4.73
2018-09-01T06:35:52.345Z,5.47
2018-09-01T06:38:21.416Z,5.50
2018-09-01T06:40:51.561Z,5.53
2018-09-01T06:43:20.833Z,5.50
2018-09-01T06:45:52.121Z,4.87
2018-09-01T06:48:22.135Z,6.30
2018-09-01T06:50:51.525Z,5.07
2018-09-01T06:53:20.920Z,5.27
2018-09-01T06:55:51.913Z,5.00
2018-09-01T06:58:22.226Z,4.93
2018-09-01T07:00:51.205Z,5.00
2018-09-01T07:03:20.286Z,4.87
2018-09-01T07:05:50.297Z,5.57
2018-09-01T07:08:18.645Z,5.60
2018-09-01T07:10:47.073Z,6.27
2018-09-01T07:13:15.412Z,5.40
2018-09-01T07:15:43.752Z,4.97
2018-09-01T07:18:12.152Z,6.13
2018-09-01T07:20:41.943Z,5.00
2018-09-01T07:23:10.951Z,5.77
2018-09-01T07:25:39.603Z,4.50
2018-09-01T07:28:08.314Z,5.03
2018-09-01T07:30:36.694Z,5.37
2018-09-01T07:33:05.117Z,4.60
2018-09-01T07:35:33.542Z,4.80
2018-09-01T07:38:02.775Z,4.93
2018-09-01T07:40:31.188Z,4.07
2018-09-01T07:42:59.527Z,4.23
2018-09-01T07:45:28.810Z,4.10
2018-09-01T07:47:59.404Z,4.50
2018-09-01T07:50:28.061Z,4.23
2018-09-01T07:52:56.492Z,4.37
2018-09-01T07:55:26.222Z,4.00
2018-09-01T07:57:56.480Z,4.03
2018-09-01T08:00:26.630Z,4.00
2018-09-01T08:02:56.081Z,4.13
2018-09-01T08:05:24.863Z,4.00
2018-09-01T08:07:54.225Z,4.30
2018-09-01T08:10:22.557Z,3.70
2018-09-01T08:12:51.533Z,4.37
2018-09-01T08:15:20.658Z,4.30
2018-09-01T08:17:50.045Z,3.30
2018-09-01T08:20:18.469Z,3.90
2018-09-01T08:22:46.845Z,4.20
2018-09-01T08:25:15.376Z,3.43
2018-09-01T08:27:43.972Z,2.70
2018-09-01T08:30:12.466Z,3.50
2018-09-01T08:32:40.869Z,3.27
2018-09-01T08:35:09.265Z,3.33
2018-09-01T08:37:37.737Z,3.37
2018-09-01T08:40:06.400Z,3.10
2018-09-01T08:42:34.709Z,2.87
2018-09-01T08:45:03.158Z,3.50
2018-09-01T08:47:31.505Z,2.90
2018-09-01T08:49:59.886Z,3.40
2018-09-01T08:52:28.697Z,2.97
2018-09-01T08:54:57.533Z,3.30
2018-09-01T08:57:26.745Z,2.87
2018-09-01T08:59:55.756Z,3.10
2018-09-01T09:02:24.782Z,2.87
2018-09-01T09:07:31.297Z,2.57
2018-09-01T09:09:59.629Z,2.97
2018-09-01T09:12:27.982Z,3.37
2018-09-01T09:14:57.565Z,2.60
2018-09-01T09:17:27.999Z,2.90
2018-09-01T09:19:57.344Z,2.63
2018-09-01T09:22:26.776Z,3.17
2018-09-01T09:24:55.800Z,2.80
2018-09-01T09:27:24.809Z,2.87
2018-09-01T09:29:53.125Z,2.80
2018-09-01T09:32:23.574Z,3.10
2018-09-01T09:34:51.907Z,2.70
2018-09-01T09:37:21.121Z,3.63
2018-09-01T09:39:50.121Z,3.30
2018-09-01T09:42:20.370Z,2.70
2018-09-01T09:44:50.632Z,2.90
2018-09-01T09:47:20.081Z,3.80
2018-09-01T09:49:50.063Z,3.20
2018-09-01T09:52:19.433Z,3.13
2018-09-01T09:54:48.735Z,2.40
2018-09-01T09:57:18.085Z,2.90
2018-09-01T09:59:46.481Z,4.40
2018-09-01T10:02:14.814Z,2.73
2018-09-01T10:04:43.168Z,2.83
2018-09-01T10:07:11.670Z,2.70
2018-09-01T10:09:41.280Z,2.70
2018-09-01T10:12:09.614Z,1.90
2018-09-01T10:14:39.009Z,2.93
2018-09-01T10:17:07.401Z,2.47
2018-09-01T10:19:36.570Z,2.70
2018-09-01T10:22:04.890Z,2.80
2018-09-01T10:24:33.209Z,2.53
2018-09-01T10:27:01.646Z,2.73
2018-09-01T10:29:31.012Z,3.07
2018-09-01T10:32:00.272Z,2.43
2018-09-01T10:34:28.707Z,2.43
2018-09-01T10:36:57.207Z,2.83
2018-09-01T10:39:26.620Z,2.83
2018-09-01T10:41:56.333Z,2.90
2018-09-01T10:44:26.801Z,2.20
2018-09-01T10:46:56.880Z,3.13
2018-09-01T10:49:25.769Z,3.50
2018-09-01T10:51:54.830Z,3.33
2018-09-01T10:54:24.099Z,2.83
2018-09-01T10:56:53.369Z,2.60
2018-09-01T10:59:21.752Z,2.93
2018-09-01T11:01:51.222Z,2.63
2018-09-01T11:04:21.352Z,2.30
2018-09-01T11:06:49.704Z,3.60
2018-09-01T11:09:19.493Z,2.80
2018-09-01T11:11:47.821Z,3.03
2018-09-01T11:14:16.320Z,2.60
2018-09-01T11:16:44.697Z,3.37
2018-09-01T11:19:13.033Z,3.20
2018-09-01T11:21:41.457Z,3.20
2018-09-01T11:24:09.781Z,2.93
2018-09-01T11:26:38.222Z,3.20
2018-09-01T11:29:07.933Z,3.17
2018-09-01T11:31:37.093Z,2.27
2018-09-01T11:34:06.469Z,2.50
2018-09-01T11:36:34.935Z,3.50
2018-09-01T11:39:04.588Z,3.10
2018-09-01T11:41:33.972Z,2.93
2018-09-01T11:44:03.185Z,2.63
2018-09-01T11:46:32.469Z,3.20
2018-09-01T11:49:00.841Z,2.97
2018-09-01T11:51:29.258Z,3.20
2018-09-01T11:53:58.818Z,2.70
2018-09-01T11:56:27.408Z,2.90
2018-09-01T11:58:56.895Z,2.73
2018-09-01T12:01:26.753Z,3.60
2018-09-01T12:03:58.446Z,3.20
2018-09-01T12:06:27.635Z,3.40
2018-09-01T12:09:02.042Z,3.30
2018-09-01T12:11:30.538Z,3.23
2018-09-01T12:13:58.859Z,3.30
2018-09-01T12:16:28.060Z,3.63
2018-09-01T12:18:56.688Z,2.93
2018-09-01T12:21:25.951Z,3.60
2018-09-01T12:23:54.940Z,2.93
2018-09-01T12:26:24.078Z,3.17
2018-09-01T12:28:53.368Z,3.13
2018-09-01T12:31:22.716Z,3.13
2018-09-01T12:33:52.040Z,3.40
2018-09-01T12:36:21.737Z,2.97
2018-09-01T12:38:52.401Z,3.20
2018-09-01T12:41:21.625Z,3.27
2018-09-01T12:43:51.438Z,3.40
2018-09-01T12:46:20.853Z,3.47
2018-09-01T12:48:52.265Z,3.30
2018-09-01T12:51:21.243Z,3.60
2018-09-01T12:53:51.147Z,3.40
2018-09-01T12:56:20.106Z,3.50
2018-09-01T12:58:50.098Z,3.40
2018-09-01T13:01:20.095Z,3.33
2018-09-01T13:03:49.124Z,3.67
2018-09-01T13:06:17.440Z,3.80
2018-09-01T13:08:45.892Z,4.10
2018-09-01T13:11:15.144Z,2.60
2018-09-01T13:13:43.541Z,3.50
2018-09-01T13:16:12.765Z,3.33
2018-09-01T13:18:41.126Z,4.30
2018-09-01T13:21:10.492Z,3.97
2018-09-01T13:23:39.843Z,3.30
2018-09-01T13:26:09.073Z,3.13
2018-09-01T13:28:38.360Z,4.07
2018-09-01T13:31:07.590Z,3.30
2018-09-01T13:33:36.840Z,3.47
2018-09-01T13:36:06.298Z,3.60
2018-09-01T13:38:35.602Z,3.77
2018-09-01T13:41:04.964Z,3.47
2018-09-01T13:43:33.428Z,3.57
2018-09-01T13:46:01.817Z,3.47
2018-09-01T13:48:30.208Z,3.20
2018-09-01T13:50:58.608Z,3.70
2018-09-01T13:53:29.227Z,3.10
2018-09-01T13:55:58.177Z,3.23
2018-09-01T13:58:27.892Z,3.83
2018-09-01T14:00:58.158Z,3.80
2018-09-01T14:03:27.382Z,3.47
2018-09-01T14:05:56.841Z,3.70
2018-09-01T14:08:27.534Z,3.53
2018-09-01T14:10:57.873Z,3.30
2018-09-01T14:13:27.076Z,2.63
2018-09-01T14:15:56.121Z,3.30
2018-09-01T14:18:24.998Z,3.70
2018-09-01T14:20:53.328Z,3.43
2018-09-01T14:23:21.680Z,3.10
2018-09-01T14:25:52.685Z,3.17
2018-09-01T14:28:21.775Z,3.10
2018-09-01T14:30:51.638Z,3.17
2018-09-01T14:33:20.382Z,3.50
2018-09-01T14:35:50.048Z,3.43
2018-09-01T14:38:20.077Z,3.47
2018-09-01T14:40:49.101Z,2.90
2018-09-01T14:43:19.381Z,3.47
2018-09-01T14:45:50.484Z,4.43
2018-09-01T14:48:19.769Z,2.87
2018-09-01T14:50:50.277Z,3.57
2018-09-01T14:53:18.647Z,2.87
2018-09-01T14:55:49.470Z,2.73
2018-09-01T14:58:20.066Z,2.70
2018-09-01T15:00:50.528Z,3.73
2018-09-01T15:03:20.049Z,2.83
2018-09-01T15:05:51.561Z,3.70
2018-09-01T15:08:21.180Z,2.80
2018-09-01T15:10:51.473Z,2.73
2018-09-01T15:13:20.085Z,2.43
2018-09-01T15:15:51.665Z,3.00
2018-09-01T15:18:21.330Z,2.77
2018-09-01T15:20:51.635Z,3.30
2018-09-01T15:23:21.205Z,2.57
2018-09-01T15:25:52.173Z,3.50
2018-09-01T15:28:22.269Z,8.93
2018-09-01T15:30:52.893Z,5.17
2018-09-01T15:33:22.150Z,3.50
2018-09-01T15:35:52.959Z,2.50
2018-09-01T15:38:21.948Z,3.50
2018-09-01T15:40:51.357Z,3.53
2018-09-01T15:43:20.991Z,2.60
2018-09-01T15:45:51.533Z,3.37
2018-09-01T15:48:20.925Z,2.90
2018-09-01T15:50:50.642Z,4.07
2018-09-01T15:53:20.637Z,3.87
2018-09-01T15:55:51.861Z,2.90
2018-09-01T15:58:21.124Z,2.27
2018-09-01T16:00:50.898Z,2.50
2018-09-01T16:03:20.595Z,1.90
2018-09-01T16:05:50.953Z,2.73
2018-09-01T16:08:21.104Z,2.80
2018-09-01T16:10:51.067Z,2.83
2018-09-01T16:13:21.453Z,2.57
2018-09-01T16:15:51.860Z,2.87
2018-09-01T16:18:21.168Z,2.47
2018-09-01T16:20:49.514Z,4.30
2018-09-01T16:23:17.914Z,2.93
2018-09-01T16:25:46.945Z,2.90
2018-09-01T16:28:15.380Z,2.63
2018-09-01T16:30:43.709Z,2.37
2018-09-01T16:33:12.054Z,2.23
2018-09-01T16:35:40.385Z,2.10
2018-09-01T16:38:08.720Z,2.03
2018-09-01T16:40:38.074Z,2.57
2018-09-01T16:43:06.664Z,2.30
2018-09-01T16:45:35.169Z,2.60
2018-09-01T16:48:04.464Z,2.30
2018-09-01T16:50:32.784Z,2.20
2018-09-01T16:53:01.177Z,2.20
2018-09-01T16:55:29.654Z,3.00
2018-09-01T16:57:59.053Z,2.80
2018-09-01T17:00:27.424Z,3.43
2018-09-01T17:02:56.333Z,2.50
2018-09-01T17:05:25.140Z,2.30
2018-09-01T17:07:53.615Z,2.20
2018-09-01T17:10:22.811Z,2.60
2018-09-01T17:12:51.680Z,2.33
2018-09-01T17:15:22.062Z,2.70
2018-09-01T17:17:52.653Z,2.60
2018-09-01T17:20:22.169Z,2.43
2018-09-01T17:22:51.496Z,2.40
2018-09-01T17:25:21.817Z,2.43
2018-09-01T17:27:51.921Z,2.97
2018-09-01T17:30:22.089Z,2.10
2018-09-01T17:32:50.700Z,2.70
2018-09-01T17:35:20.574Z,2.97
2018-09-01T17:37:50.005Z,5.60
2018-09-01T17:40:20.327Z,8.43
2018-09-01T17:42:49.540Z,2.90
2018-09-01T17:45:17.918Z,2.60
2018-09-01T17:47:47.137Z,3.23
2018-09-01T17:50:15.513Z,2.43
2018-09-01T17:52:44.886Z,2.30
2018-09-01T17:55:14.167Z,2.80
2018-09-01T17:57:43.532Z,2.50
2018-09-01T18:00:12.848Z,2.70
2018-09-01T18:02:42.041Z,3.13
2018-09-01T18:05:11.350Z,4.43
2018-09-01T18:07:39.672Z,4.30
2018-09-01T18:10:09.026Z,2.77
2018-09-01T18:12:37.477Z,2.80
2018-09-01T18:15:07.390Z,2.10
2018-09-01T18:17:36.908Z,2.53
2018-09-01T18:20:06.589Z,2.10
2018-09-01T18:22:34.995Z,2.80
2018-09-01T18:25:03.635Z,2.43
2018-09-01T18:27:33.193Z,2.33
2018-09-01T18:30:01.534Z,2.87
2018-09-01T18:32:30.021Z,3.30
2018-09-01T18:34:59.490Z,3.20
2018-09-01T18:37:28.933Z,2.80
2018-09-01T18:39:58.086Z,3.13
2018-09-01T18:42:26.994Z,2.80
2018-09-01T18:44:56.628Z,2.83
2018-09-01T18:47:26.208Z,2.53
2018-09-01T18:49:54.700Z,3.30
2018-09-01T18:52:23.172Z,2.73
2018-09-01T18:54:53.697Z,3.90
2018-09-01T18:57:22.281Z,3.03
2018-09-01T18:59:51.320Z,3.00
2018-09-01T19:02:22.259Z,3.37
2018-09-01T19:04:51.386Z,3.20
2018-09-01T19:07:21.555Z,2.90
2018-09-01T19:09:50.566Z,2.77
2018-09-01T19:12:20.181Z,3.20
2018-09-01T19:14:49.121Z,2.90
2018-09-01T19:17:19.481Z,3.13
2018-09-01T19:19:48.038Z,3.10
2018-09-01T19:22:17.421Z,4.00
2018-09-01T19:24:45.793Z,3.30
2018-09-01T19:27:14.458Z,3.50
2018-09-01T19:29:43.906Z,2.50
2018-09-01T19:32:12.273Z,3.60
2018-09-01T19:34:41.101Z,2.87
2018-09-01T19:37:10.339Z,2.63
2018-09-01T19:39:39.585Z,3.00
2018-09-01T19:42:08.131Z,3.03
2018-09-01T19:44:36.511Z,2.70
2018-09-01T19:47:05.235Z,3.80
2018-09-01T19:49:33.713Z,2.70
2018-09-01T19:52:02.077Z,3.00
2018-09-01T19:54:30.449Z,3.03
2018-09-01T19:56:59.107Z,3.23
2018-09-01T19:59:28.038Z,3.77
2018-09-01T20:01:58.299Z,3.83
2018-09-01T20:04:28.464Z,3.50
2018-09-01T20:06:57.385Z,3.07
2018-09-01T20:09:26.201Z,3.37
2018-09-01T20:11:54.696Z,3.43
2018-09-01T20:14:24.126Z,3.80
2018-09-01T20:16:53.297Z,3.70
2018-09-01T20:19:22.665Z,3.30
2018-09-01T20:21:53.047Z,4.10
2018-09-01T20:24:23.160Z,3.60
2018-09-01T20:26:52.888Z,3.23
2018-09-01T20:29:22.000Z,4.10
2018-09-01T20:31:51.348Z,3.00
2018-09-01T20:34:21.758Z,3.87
2018-09-01T20:36:51.418Z,4.70
2018-09-01T20:39:21.066Z,5.00
2018-09-01T20:41:50.389Z,8.40
2018-09-01T20:44:19.878Z,12.63
2018-09-01T20:46:56.091Z,19.30
2018-09-01T20:49:24.420Z,16.27
2018-09-01T20:51:57.557Z,21.57
2018-09-01T20:54:27.012Z,21.23
2018-09-01T20:56:56.122Z,13.63
2018-09-01T20:59:25.338Z,10.47
2018-09-01T21:01:53.689Z,11.37
2018-09-01T21:04:28.888Z,10.83
2018-09-01T21:06:57.861Z,9.30
2018-09-01T21:09:27.069Z,6.77
2018-09-01T21:11:56.371Z,4.67
2018-09-01T21:14:25.375Z,4.37
2018-09-01T21:16:53.830Z,3.80
2018-09-01T21:19:23.093Z,4.10
2018-09-01T21:21:52.085Z,3.93
2018-09-01T21:24:20.838Z,3.90
2018-09-01T21:26:51.593Z,3.83
2018-09-01T21:29:21.628Z,3.47
2018-09-01T21:31:51.216Z,4.30
2018-09-01T21:34:20.262Z,3.60
2018-09-01T21:36:49.682Z,4.13
2018-09-01T21:39:18.073Z,3.40
2018-09-01T21:41:46.484Z,3.87
2018-09-01T21:44:14.909Z,3.00
2018-09-01T21:46:43.349Z,4.03
2018-09-01T21:49:11.722Z,3.80
2018-09-01T21:51:40.514Z,4.20
2018-09-01T21:54:08.939Z,3.90
2018-09-01T21:56:38.367Z,3.70
2018-09-01T21:59:06.717Z,3.50
2018-09-01T22:01:36.273Z,3.80
2018-09-01T22:04:04.779Z,3.27
2018-09-01T22:06:33.292Z,3.37
2018-09-01T22:09:01.797Z,3.47
2018-09-01T22:11:30.169Z,3.60
2018-09-01T22:13:59.141Z,3.63
2018-09-01T22:16:28.228Z,3.60
2018-09-01T22:18:57.526Z,3.50
2018-09-01T22:21:25.982Z,3.93
2018-09-01T22:23:54.319Z,3.87
2018-09-01T22:26:22.672Z,3.43
2018-09-01T22:28:52.416Z,3.90
2018-09-01T22:31:21.700Z,3.73
2018-09-01T22:33:50.651Z,4.10
2018-09-01T22:36:19.555Z,3.83
2018-09-01T22:38:47.975Z,3.50
2018-09-01T22:41:16.289Z,4.37
2018-09-01T22:43:44.680Z,3.70
2018-09-01T22:46:13.077Z,3.83
2018-09-01T22:48:41.488Z,4.30
2018-09-01T22:51:10.180Z,3.70
2018-09-01T22:53:39.533Z,3.93
2018-09-01T22:56:07.932Z,3.40
2018-09-01T22:58:36.401Z,3.40
2018-09-01T23:01:04.926Z,3.73
2018-09-01T23:03:33.380Z,3.87
2018-09-01T23:06:01.862Z,3.97
2018-09-01T23:08:30.302Z,4.20
2018-09-01T23:10:58.683Z,3.77
2018-09-01T23:13:27.452Z,3.93
2018-09-01T23:15:55.844Z,4.33
2018-09-01T23:18:25.727Z,4.50
2018-09-01T23:20:54.257Z,4.10
2018-09-01T23:23:22.697Z,4.10
2018-09-01T23:25:52.650Z,4.20
2018-09-01T23:28:22.078Z,3.00
2018-09-01T23:30:51.613Z,3.83
2018-09-01T23:33:20.860Z,4.03
2018-09-01T23:35:51.937Z,3.57
2018-09-01T23:38:22.214Z,3.60
2018-09-01T23:40:51.561Z,3.53
2018-09-01T23:43:20.797Z,3.33
2018-09-01T23:45:51.217Z,3.70
2018-09-01T23:48:21.680Z,4.30
2018-09-01T23:50:50.714Z,4.27
2018-09-01T23:53:20.405Z,3.70
2018-09-01T23:55:51.174Z,3.77
2018-09-01T23:58:21.484Z,3.90
